Adamant, Vermont
Current Conditions -  °F | °C
As of 4:08 AM on Saturday 25 Oct 2014 (Local Time) from KMPV Reporting Station
Haze Haze  
Wind Chill: 31°   Ceiling: 100
Heat Index: 31°   Visibility: 2mi
Dew Point: 30°   Wind: 3mph
Humidity: 96%   Direction: 190°S
Pressure: 29.79"   Gusts: NA
Location:  44.33°N, 72.5°W
Report Text: KMPV 250808Z AUTO 19003KT 2SM BR BKN001 BKN120 M01/M01 A2979 RMK AO2 T10061011 $
Loading
Personal Weather Stations






























Interactive Weather Map New forecast layout! Learn more

10-Day Weather Forecast

Advertisements
Track Severe Weather on mobile